Harrold, Texas
Current Conditions -  °F | °C
As of 2:16 AM on Thursday 27 Nov 2014 (Local Time) from KF05 Reporting Station
Scattered Clouds Scattered Clouds  
Wind Chill: 36°   Ceiling: Unl
Heat Index: 36°   Visibility: 10mi
Dew Point: 27°   Wind: 0mph
Humidity: 70%   Direction: NA
Pressure: 30.49"   Gusts: NA
Location:  34.08°N, 99.03°W
Report Text: KF05 270816Z AUTO 00000KT 10SM SCT110 02/M03 A3049 RMK AO2
Loading
Personal Weather Stations






























Interactive Weather Map New forecast layout! Learn more

10-Day Weather Forecast

Advertisements
Track Severe Weather on mobile